createdAt,value
2022-08-12T00:00:08.892Z,2.90
2022-08-12T00:02:54.822Z,3.10
2022-08-12T00:06:00.435Z,3.17
2022-08-12T00:08:47.894Z,3.20
2022-08-12T00:11:33.759Z,3.53
2022-08-12T00:14:19.525Z,3.50
2022-08-12T00:17:06.912Z,3.70
2022-08-12T00:19:52.409Z,2.97
2022-08-12T00:22:39.399Z,2.90
2022-08-12T00:26:05.645Z,3.00
2022-08-12T00:28:34.326Z,2.90
2022-08-12T00:31:19.764Z,3.40
2022-08-12T00:34:05.611Z,3.00
2022-08-12T00:36:51.157Z,3.50
2022-08-12T00:39:37.257Z,3.40
2022-08-12T00:42:12.735Z,3.40
2022-08-12T00:44:43.182Z,3.30
2022-08-12T00:47:24.993Z,3.40
2022-08-12T00:49:55.400Z,3.00
2022-08-12T00:52:24.441Z,3.30
2022-08-12T00:54:56.886Z,3.77
2022-08-12T00:57:29.806Z,4.03
2022-08-12T00:59:59.545Z,3.10
2022-08-12T01:02:31.236Z,3.83
2022-08-12T01:05:18.904Z,3.23
2022-08-12T01:08:07.093Z,3.20
2022-08-12T01:10:55.091Z,3.50
2022-08-12T01:13:24.673Z,3.53
2022-08-12T01:15:54.309Z,4.57
2022-08-12T01:18:24.418Z,3.10
2022-08-12T01:21:03.866Z,3.60
2022-08-12T01:23:52.418Z,3.27
2022-08-12T01:26:24.734Z,3.13
2022-08-12T01:28:58.423Z,3.57
2022-08-12T01:31:29.192Z,3.40
2022-08-12T01:34:04.088Z,3.77
2022-08-12T01:36:37.357Z,3.30
2022-08-12T01:39:06.049Z,3.60
2022-08-12T01:41:39.950Z,3.80
2022-08-12T01:44:10.028Z,3.30
2022-08-12T01:46:53.448Z,3.33
2022-08-12T01:49:55.372Z,3.60
2022-08-12T01:52:31.717Z,2.93
2022-08-12T01:55:01.064Z,4.10
2022-08-12T01:57:58.636Z,3.60
2022-08-12T02:00:55.518Z,3.63
2022-08-12T02:03:55.514Z,3.60
2022-08-12T02:06:46.502Z,4.10
2022-08-12T02:09:35.181Z,4.47
2022-08-12T02:12:10.049Z,3.60
2022-08-12T02:14:52.521Z,3.37
2022-08-12T02:17:55.700Z,4.10
2022-08-12T02:20:50.903Z,3.67
2022-08-12T02:23:25.404Z,3.33
2022-08-12T02:25:56.945Z,3.67
2022-08-12T02:28:25.309Z,4.00
2022-08-12T02:30:55.534Z,3.40
2022-08-12T02:33:24.048Z,3.60
2022-08-12T02:35:52.347Z,3.60
2022-08-12T02:38:22.696Z,4.03
2022-08-12T02:40:54.777Z,3.57
2022-08-12T02:43:30.749Z,3.40
2022-08-12T02:46:04.209Z,3.50
2022-08-12T02:48:36.445Z,4.57
2022-08-12T02:51:09.182Z,4.10
2022-08-12T02:53:38.139Z,3.60
2022-08-12T02:56:07.469Z,3.60
2022-08-12T02:58:41.420Z,3.80
2022-08-12T03:01:15.395Z,4.00
2022-08-12T03:03:43.770Z,3.97
2022-08-12T03:06:17.494Z,3.73
2022-08-12T03:08:53.799Z,3.70
2022-08-12T03:11:27.034Z,4.00
2022-08-12T03:13:59.353Z,3.50
2022-08-12T03:16:33.330Z,3.87
2022-08-12T03:19:01.494Z,3.77
2022-08-12T03:21:55.418Z,3.90
2022-08-12T03:24:19.538Z,3.90
2022-08-12T03:26:49.542Z,3.77
2022-08-12T03:29:18.221Z,3.83
2022-08-12T03:31:49.402Z,4.43
2022-08-12T03:34:23.477Z,3.90
2022-08-12T03:36:55.441Z,3.73
2022-08-12T03:39:36.546Z,3.73
2022-08-12T03:42:17.110Z,4.10
2022-08-12T03:45:11.709Z,4.30
2022-08-12T03:48:06.047Z,4.00
2022-08-12T03:50:52.068Z,4.03
2022-08-12T03:53:45.749Z,3.67
2022-08-12T03:56:31.621Z,3.53
2022-08-12T03:59:19.172Z,4.07
2022-08-12T04:01:52.411Z,4.47
2022-08-12T04:04:23.437Z,4.10
2022-08-12T04:06:52.268Z,4.57
2022-08-12T04:09:22.985Z,3.90
2022-08-12T04:12:09.109Z,4.47
2022-08-12T04:14:37.633Z,4.00
2022-08-12T04:17:05.944Z,3.90
2022-08-12T04:19:35.680Z,4.10
2022-08-12T04:22:03.903Z,4.03
2022-08-12T04:24:34.608Z,3.77
2022-08-12T04:27:05.068Z,4.40
2022-08-12T04:30:17.158Z,4.00
2022-08-12T04:32:22.329Z,4.50
2022-08-12T04:34:52.055Z,3.87
2022-08-12T04:37:20.191Z,4.00
2022-08-12T04:39:49.819Z,4.10
2022-08-12T04:42:18.547Z,4.30
2022-08-12T04:44:46.580Z,3.90
2022-08-12T04:47:15.113Z,4.07
2022-08-12T04:49:45.492Z,4.40
2022-08-12T04:52:15.465Z,3.90
2022-08-12T04:54:43.748Z,4.13
2022-08-12T04:57:11.747Z,3.97
2022-08-12T04:59:47.030Z,4.00
2022-08-12T05:02:20.283Z,3.83
2022-08-12T05:04:50.895Z,3.93
2022-08-12T05:07:20.357Z,4.17
2022-08-12T05:10:01.745Z,4.00
2022-08-12T05:12:37.171Z,4.40
2022-08-12T05:15:19.734Z,4.03
2022-08-12T05:17:55.452Z,4.43
2022-08-12T05:20:25.927Z,4.43
2022-08-12T05:23:12.461Z,4.00
2022-08-12T05:25:42.997Z,4.80
2022-08-12T05:28:12.877Z,4.37
2022-08-12T05:30:42.423Z,4.07
2022-08-12T05:33:11.929Z,4.03
2022-08-12T05:35:42.950Z,4.20
2022-08-12T05:38:32.188Z,3.57
2022-08-12T05:41:01.107Z,4.07
2022-08-12T05:43:29.350Z,4.40
2022-08-12T05:45:57.666Z,4.40
2022-08-12T05:48:25.622Z,5.23
2022-08-12T05:50:53.581Z,4.70
2022-08-12T05:53:23.869Z,4.43
2022-08-12T05:55:54.201Z,4.10
2022-08-12T05:58:22.133Z,5.37
2022-08-12T06:00:50.052Z,5.60
2022-08-12T06:03:19.687Z,5.87
2022-08-12T06:05:55.735Z,5.20
2022-08-12T06:08:26.008Z,6.30
2022-08-12T06:10:53.969Z,6.00
2022-08-12T06:13:28.274Z,5.10
2022-08-12T06:16:11.385Z,5.87
2022-08-12T06:18:40.623Z,6.00
2022-08-12T06:21:08.880Z,6.47
2022-08-12T06:23:42.496Z,6.30
2022-08-12T06:26:12.765Z,5.67
2022-08-12T06:28:40.981Z,5.40
2022-08-12T06:31:27.230Z,5.90
2022-08-12T06:34:00.465Z,4.50
2022-08-12T06:36:44.469Z,4.57
2022-08-12T06:39:15.284Z,3.30
2022-08-12T06:42:05.080Z,4.53
2022-08-12T06:44:50.376Z,3.67
2022-08-12T06:47:19.635Z,3.80
2022-08-12T06:49:48.543Z,3.20
2022-08-12T06:52:17.187Z,3.00
2022-08-12T06:54:46.485Z,3.10
2022-08-12T06:58:06.298Z,3.13
2022-08-12T07:00:02.270Z,2.90
2022-08-12T07:02:33.723Z,3.17
2022-08-12T07:05:04.991Z,3.40
2022-08-12T07:07:32.894Z,3.73
2022-08-12T07:10:06.034Z,3.10
2022-08-12T07:12:35.149Z,3.37
2022-08-12T07:15:03.117Z,3.10
2022-08-12T07:17:35.809Z,3.37
2022-08-12T07:20:05.290Z,3.10
2022-08-12T07:22:34.034Z,3.50
2022-08-12T07:25:20.981Z,2.93
2022-08-12T07:27:53.676Z,2.60
2022-08-12T07:30:21.606Z,2.77
2022-08-12T07:32:51.515Z,3.10
2022-08-12T07:35:20.269Z,2.70
2022-08-12T07:37:50.255Z,2.70
2022-08-12T07:40:20.424Z,2.57
2022-08-12T07:42:48.522Z,2.73
2022-08-12T07:45:16.501Z,2.45
2022-08-12T07:47:44.800Z,2.42
2022-08-12T07:50:13.972Z,2.33
2022-08-12T07:52:44.601Z,2.75
2022-08-12T07:55:13.560Z,2.90
2022-08-12T07:57:53.282Z,2.40
2022-08-12T08:00:21.548Z,2.88
2022-08-12T08:02:50.378Z,2.92
2022-08-12T08:05:19.416Z,2.75
2022-08-12T08:07:47.443Z,2.88
2022-08-12T08:10:16.606Z,2.20
2022-08-12T08:12:53.392Z,2.40
2022-08-12T08:15:44.663Z,2.50
2022-08-12T08:18:25.725Z,2.40
2022-08-12T08:20:54.069Z,2.58
2022-08-12T08:23:21.986Z,2.40
2022-08-12T08:25:57.801Z,2.50
2022-08-12T08:28:25.713Z,2.40
2022-08-12T08:30:54.991Z,2.28
2022-08-12T08:34:09.238Z,2.63
2022-08-12T08:36:24.051Z,2.20
2022-08-12T08:38:57.492Z,2.40
2022-08-12T08:42:16.571Z,2.83
2022-08-12T08:44:32.137Z,2.50
2022-08-12T08:47:03.716Z,2.20
2022-08-12T08:49:32.131Z,2.33
2022-08-12T08:52:03.082Z,2.60
2022-08-12T08:54:33.497Z,2.10
2022-08-12T08:57:02.018Z,2.03
2022-08-12T08:59:30.306Z,1.90
2022-08-12T09:01:58.458Z,1.90
2022-08-12T09:05:12.323Z,2.65
2022-08-12T09:07:51.542Z,2.30
2022-08-12T09:10:15.670Z,2.33
2022-08-12T09:13:22.931Z,2.30
2022-08-12T09:15:56.037Z,2.45
2022-08-12T09:18:33.402Z,1.77
2022-08-12T09:21:03.768Z,2.47
2022-08-12T09:24:00.174Z,2.60
2022-08-12T09:26:28.054Z,2.10
2022-08-12T09:28:56.828Z,2.03
2022-08-12T09:32:06.529Z,2.40
2022-08-12T09:34:28.602Z,2.00
2022-08-12T09:37:20.021Z,2.40
2022-08-12T09:40:04.446Z,2.10
2022-08-12T09:43:17.493Z,2.00
2022-08-12T09:46:12.086Z,1.90
2022-08-12T09:48:40.121Z,2.30
2022-08-12T09:51:16.853Z,2.20
2022-08-12T09:54:08.764Z,2.00
2022-08-12T09:56:59.309Z,2.10
2022-08-12T10:00:14.854Z,2.10
2022-08-12T10:02:42.036Z,2.53
2022-08-12T10:05:04.565Z,2.20
2022-08-12T10:07:40.584Z,2.37
2022-08-12T10:10:23.056Z,2.30
2022-08-12T10:13:13.521Z,2.10
2022-08-12T10:16:02.844Z,2.47
2022-08-12T10:18:35.800Z,2.63
2022-08-12T10:21:07.746Z,2.40
2022-08-12T10:23:40.195Z,2.20
2022-08-12T10:26:37.491Z,2.20
2022-08-12T10:30:03.735Z,2.40
2022-08-12T10:32:42.931Z,2.80
2022-08-12T10:35:09.126Z,2.47
2022-08-12T10:38:33.655Z,2.37
2022-08-12T10:40:32.061Z,2.60
2022-08-12T10:43:19.786Z,2.40
2022-08-12T10:45:49.121Z,2.57
2022-08-12T10:48:21.906Z,2.27
2022-08-12T10:51:01.466Z,2.73
2022-08-12T10:53:46.093Z,3.07
2022-08-12T10:56:15.477Z,2.53
2022-08-12T10:58:47.024Z,2.60
2022-08-12T11:01:50.501Z,2.47
2022-08-12T11:04:24.694Z,2.90
2022-08-12T11:07:06.814Z,2.30
2022-08-12T11:09:59.618Z,3.40
2022-08-12T11:12:55.792Z,3.10
2022-08-12T11:15:24.207Z,3.03
2022-08-12T11:18:03.207Z,2.70
2022-08-12T11:20:31.526Z,2.50
2022-08-12T11:23:04.252Z,2.80
2022-08-12T11:25:57.516Z,3.03
2022-08-12T11:28:34.005Z,2.27
2022-08-12T11:31:04.407Z,4.03
2022-08-12T11:34:04.763Z,3.20
2022-08-12T11:36:21.793Z,3.23
2022-08-12T11:38:51.350Z,3.27
2022-08-12T11:41:31.320Z,2.53
2022-08-12T11:44:30.676Z,2.90
2022-08-12T11:46:51.471Z,2.50
2022-08-12T11:49:30.714Z,3.07
2022-08-12T11:52:03.934Z,3.17
2022-08-12T11:54:32.309Z,2.50
2022-08-12T11:57:02.965Z,2.50
2022-08-12T12:02:39.348Z,2.43
2022-08-12T12:05:08.481Z,2.13
2022-08-12T12:08:38.252Z,2.17
2022-08-12T12:10:27.898Z,2.67
2022-08-12T12:12:55.794Z,2.20
2022-08-12T12:15:25.252Z,2.90
2022-08-12T12:18:22.380Z,2.57
2022-08-12T12:21:01.538Z,2.30
2022-08-12T12:23:36.185Z,2.53
2022-08-12T12:26:08.140Z,2.60
2022-08-12T12:28:41.315Z,2.43
2022-08-12T12:32:11.641Z,1.97
2022-08-12T12:34:30.725Z,2.40
2022-08-12T12:37:00.902Z,1.90
2022-08-12T12:39:29.838Z,2.20
2022-08-12T12:42:43.066Z,2.70
2022-08-12T12:45:25.986Z,2.60
2022-08-12T12:48:01.910Z,2.30
2022-08-12T12:50:35.220Z,2.20
2022-08-12T12:53:04.127Z,2.20
2022-08-12T12:55:35.971Z,2.00
2022-08-12T12:58:05.458Z,1.73
2022-08-12T13:00:34.520Z,2.30
2022-08-12T13:03:02.412Z,2.20
2022-08-12T13:05:42.222Z,2.30
2022-08-12T13:08:28.469Z,2.30
2022-08-12T13:11:05.648Z,2.10
2022-08-12T13:14:11.752Z,2.10
2022-08-12T13:16:22.578Z,2.33
2022-08-12T13:18:52.077Z,2.00
2022-08-12T13:21:32.709Z,1.63
2022-08-12T13:24:10.421Z,1.80
2022-08-12T13:26:40.079Z,1.90
2022-08-12T13:29:11.688Z,1.90
2022-08-12T13:32:19.412Z,1.80
2022-08-12T13:34:34.757Z,1.80
2022-08-12T13:37:09.777Z,1.80
2022-08-12T13:39:38.218Z,1.80
2022-08-12T13:42:14.646Z,1.93
2022-08-12T13:44:42.922Z,1.67
2022-08-12T13:47:19.422Z,1.87
2022-08-12T13:49:54.913Z,1.67
2022-08-12T13:52:25.840Z,1.67
2022-08-12T13:54:56.298Z,1.60
2022-08-12T13:57:26.232Z,2.10
2022-08-12T13:59:55.039Z,1.50
2022-08-12T14:02:24.385Z,1.83
2022-08-12T14:04:56.492Z,1.53
2022-08-12T14:07:27.451Z,1.60
2022-08-12T14:10:16.030Z,1.80
2022-08-12T14:12:54.692Z,1.90
2022-08-12T14:15:35.104Z,1.77
2022-08-12T14:18:13.350Z,1.60
2022-08-12T14:20:43.800Z,2.10
2022-08-12T14:24:04.529Z,1.67
2022-08-12T14:26:11.766Z,2.00
2022-08-12T14:28:45.414Z,1.50
2022-08-12T14:31:31.742Z,1.70
2022-08-12T14:34:04.054Z,1.50
2022-08-12T14:36:32.985Z,1.57
2022-08-12T14:39:04.905Z,1.50
2022-08-12T14:41:37.294Z,1.77
2022-08-12T14:44:59.690Z,1.53
2022-08-12T14:47:07.538Z,1.63
2022-08-12T14:50:34.057Z,1.63
2022-08-12T14:52:58.942Z,1.70
2022-08-12T14:58:02.761Z,1.63
2022-08-12T15:00:52.203Z,1.70
2022-08-12T15:03:52.872Z,1.40
2022-08-12T15:06:39.916Z,1.73
2022-08-12T15:09:04.954Z,1.30
2022-08-12T15:11:54.775Z,1.73
2022-08-12T15:14:25.295Z,1.67
2022-08-12T15:16:53.778Z,1.40
2022-08-12T15:20:11.021Z,1.83
2022-08-12T15:22:37.727Z,1.50
2022-08-12T15:24:58.097Z,1.37
2022-08-12T15:27:31.784Z,1.60
2022-08-12T15:30:17.470Z,1.40
2022-08-12T15:32:51.199Z,1.40
2022-08-12T15:35:19.400Z,1.40
2022-08-12T15:38:09.080Z,1.77
2022-08-12T15:40:48.264Z,1.43
2022-08-12T15:43:51.043Z,1.47
2022-08-12T15:46:08.093Z,1.63
2022-08-12T15:48:44.140Z,1.47
2022-08-12T15:51:58.133Z,1.60
2022-08-12T15:54:30.764Z,1.30
2022-08-12T15:57:08.191Z,1.43
2022-08-12T16:00:03.994Z,1.37
2022-08-12T16:02:29.371Z,1.80
2022-08-12T16:04:57.748Z,1.57
2022-08-12T16:07:31.911Z,2.00
2022-08-12T16:10:09.271Z,1.50
2022-08-12T16:12:42.036Z,1.67
2022-08-12T16:15:14.744Z,1.53
2022-08-12T16:18:19.779Z,1.50
2022-08-12T16:20:34.762Z,1.60
2022-08-12T16:23:26.553Z,1.50
2022-08-12T16:26:06.392Z,1.43
2022-08-12T16:28:42.993Z,1.40
2022-08-12T16:31:22.767Z,1.60
2022-08-12T16:33:58.767Z,1.57
2022-08-12T16:36:29.477Z,1.60
2022-08-12T16:38:57.699Z,1.73
2022-08-12T16:41:37.813Z,1.40
2022-08-12T16:44:06.148Z,1.20
2022-08-12T16:46:37.961Z,1.50
2022-08-12T16:49:13.116Z,1.20
2022-08-12T16:51:46.948Z,1.57
2022-08-12T16:54:16.900Z,1.40
2022-08-12T16:56:54.876Z,1.30
2022-08-12T16:59:23.837Z,1.70
2022-08-12T17:01:54.016Z,1.70
2022-08-12T17:04:24.307Z,1.60
2022-08-12T17:06:52.862Z,1.87
2022-08-12T17:09:20.819Z,1.50
2022-08-12T17:11:49.564Z,2.30
2022-08-12T17:14:23.125Z,1.80
2022-08-12T17:16:54.881Z,2.50
2022-08-12T17:20:12.193Z,2.37
2022-08-12T17:22:15.382Z,2.10
2022-08-12T17:24:54.559Z,1.87
2022-08-12T17:27:24.513Z,1.63
2022-08-12T17:30:01.499Z,1.70
2022-08-12T17:32:35.875Z,1.67
2022-08-12T17:35:29.570Z,1.57
2022-08-12T17:37:59.970Z,1.60
2022-08-12T17:40:36.389Z,1.60
2022-08-12T17:43:54.578Z,1.57
2022-08-12T17:45:59.038Z,1.53
2022-08-12T17:48:34.992Z,1.63
2022-08-12T17:51:15.717Z,1.63
2022-08-12T17:54:10.336Z,1.57
2022-08-12T17:56:37.113Z,1.60
2022-08-12T17:59:07.414Z,1.90
2022-08-12T18:01:36.554Z,2.13
2022-08-12T18:04:22.083Z,1.50
2022-08-12T18:06:52.133Z,1.37
2022-08-12T18:09:21.480Z,2.10
2022-08-12T18:12:12.048Z,1.40
2022-08-12T18:14:41.182Z,1.90
2022-08-12T18:17:11.935Z,1.70
2022-08-12T18:20:05.587Z,1.60
2022-08-12T18:22:33.019Z,1.97
2022-08-12T18:25:04.759Z,1.70
2022-08-12T18:27:45.000Z,1.80
2022-08-12T18:30:29.437Z,1.43
2022-08-12T18:33:03.471Z,1.87
2022-08-12T18:35:47.669Z,1.90
2022-08-12T18:38:22.680Z,1.60
2022-08-12T18:41:21.333Z,1.80
2022-08-12T18:43:58.941Z,1.77
2022-08-12T18:46:34.885Z,1.90
2022-08-12T18:49:18.023Z,2.03
2022-08-12T18:51:55.500Z,1.60
2022-08-12T18:54:33.973Z,1.60
2022-08-12T18:57:04.816Z,2.40
2022-08-12T19:00:00.868Z,2.30
2022-08-12T19:02:23.238Z,2.10
2022-08-12T19:04:53.856Z,2.17
2022-08-12T19:07:25.020Z,2.40
2022-08-12T19:10:00.092Z,2.10
2022-08-12T19:12:57.288Z,2.27
2022-08-12T19:15:27.249Z,2.13
2022-08-12T19:18:02.478Z,1.90
2022-08-12T19:20:32.817Z,2.00
2022-08-12T19:23:07.999Z,1.97
2022-08-12T19:25:59.336Z,2.20
2022-08-12T19:28:35.573Z,2.13
2022-08-12T19:31:55.290Z,2.03
2022-08-12T19:37:17.998Z,1.80
2022-08-12T19:40:07.685Z,2.47
2022-08-12T19:42:42.604Z,1.57
2022-08-12T19:45:13.933Z,1.83
2022-08-12T19:47:44.657Z,2.10
2022-08-12T19:50:13.606Z,2.00
2022-08-12T19:52:51.291Z,1.60
2022-08-12T19:55:27.101Z,2.00
2022-08-12T19:58:02.946Z,1.73
2022-08-12T20:00:34.492Z,2.90
2022-08-12T20:03:05.235Z,2.80
2022-08-12T20:06:05.722Z,2.10
2022-08-12T20:08:34.379Z,2.63
2022-08-12T20:12:13.643Z,2.20
2022-08-12T20:14:01.469Z,2.10
2022-08-12T20:19:53.196Z,2.10
2022-08-12T20:22:23.933Z,1.83
2022-08-12T20:24:58.131Z,2.03
2022-08-12T20:28:03.423Z,2.10
2022-08-12T20:30:52.877Z,2.07
2022-08-12T20:33:17.665Z,1.80
2022-08-12T20:36:13.261Z,2.23
2022-08-12T20:38:38.214Z,2.43
2022-08-12T20:41:19.057Z,2.10
2022-08-12T20:43:50.605Z,2.40
2022-08-12T20:46:20.707Z,2.20
2022-08-12T20:48:54.892Z,2.80
2022-08-12T20:51:27.590Z,2.33
2022-08-12T20:53:59.345Z,2.50
2022-08-12T20:56:32.998Z,5.30
2022-08-12T20:59:06.073Z,2.70
2022-08-12T21:01:47.064Z,2.83
2022-08-12T21:04:35.315Z,3.30
2022-08-12T21:07:08.347Z,2.80
2022-08-12T21:09:41.418Z,2.70
2022-08-12T21:12:27.415Z,3.57
2022-08-12T21:15:23.119Z,3.60
2022-08-12T21:18:08.244Z,3.13
2022-08-12T21:20:42.076Z,3.43
2022-08-12T21:23:09.975Z,3.30
2022-08-12T21:25:45.272Z,3.80
2022-08-12T21:28:14.306Z,3.13
2022-08-12T21:31:10.781Z,3.33
2022-08-12T21:33:32.168Z,6.83
2022-08-12T21:36:22.851Z,2.77
2022-08-12T21:39:01.335Z,2.60
2022-08-12T21:41:30.205Z,3.07
2022-08-12T21:44:00.814Z,5.00
2022-08-12T21:46:34.688Z,3.90
2022-08-12T21:49:05.544Z,32.20
2022-08-12T21:51:35.351Z,26.17
2022-08-12T21:54:21.716Z,2.70
2022-08-12T21:56:52.923Z,2.50
2022-08-12T21:59:22.729Z,2.60
2022-08-12T22:01:53.421Z,2.40
2022-08-12T22:04:40.048Z,2.87
2022-08-12T22:07:08.541Z,2.37
2022-08-12T22:09:43.029Z,2.40
2022-08-12T22:12:29.574Z,2.37
2022-08-12T22:14:57.509Z,1.87
2022-08-12T22:17:49.627Z,2.67
2022-08-12T22:20:21.682Z,2.40
2022-08-12T22:22:56.468Z,2.60
2022-08-12T22:25:28.558Z,2.40
2022-08-12T22:28:14.677Z,2.23
2022-08-12T22:31:01.096Z,2.30
2022-08-12T22:33:30.446Z,2.73
2022-08-12T22:36:27.907Z,2.40
2022-08-12T22:38:59.101Z,2.60
2022-08-12T22:41:45.374Z,3.13
2022-08-12T22:44:31.504Z,2.40
2022-08-12T22:47:49.751Z,2.43
2022-08-12T22:50:27.149Z,2.50
2022-08-12T22:53:14.661Z,2.50
2022-08-12T22:55:59.721Z,2.50
2022-08-12T22:58:33.211Z,2.30
2022-08-12T23:01:02.355Z,2.53
2022-08-12T23:03:47.881Z,2.60
2022-08-12T23:06:19.966Z,2.57
2022-08-12T23:08:49.847Z,2.50
2022-08-12T23:11:23.920Z,3.20
2022-08-12T23:13:56.628Z,2.50
2022-08-12T23:16:31.643Z,2.73
2022-08-12T23:19:10.335Z,2.57
2022-08-12T23:22:04.182Z,2.70
2022-08-12T23:24:36.596Z,2.80
2022-08-12T23:27:22.803Z,2.70
2022-08-12T23:30:17.794Z,3.00
2022-08-12T23:32:38.609Z,2.30
2022-08-12T23:35:08.193Z,2.50
2022-08-12T23:37:47.389Z,2.70
2022-08-12T23:40:24.680Z,2.03
2022-08-12T23:42:54.098Z,2.93
2022-08-12T23:45:31.725Z,2.50
2022-08-12T23:48:02.756Z,2.73
2022-08-12T23:50:33.974Z,2.87
2022-08-12T23:53:06.473Z,2.50
2022-08-12T23:55:43.501Z,2.40
2022-08-12T23:58:23.026Z,2.70
